sensor_id;sensor_type;location;lat;lon;timestamp;pressure;altitude;pressure_sealevel;temperature;humidity
51986;BME280;38002;53.296;6.600;2023-03-03T00:04:34;102900.38;;;1.65;89.60
51986;BME280;38002;53.296;6.600;2023-03-03T00:09:34;102892.78;;;1.53;89.70
51986;BME280;38002;53.296;6.600;2023-03-03T00:14:34;102903.34;;;1.58;90.66
51986;BME280;38002;53.296;6.600;2023-03-03T00:19:37;102897.06;;;1.59;90.46
51986;BME280;38002;53.296;6.600;2023-03-03T00:24:40;102891.63;;;1.60;89.90
51986;BME280;38002;53.296;6.600;2023-03-03T00:29:45;102899.75;;;1.59;89.50
51986;BME280;38002;53.296;6.600;2023-03-03T00:34:48;102898.03;;;1.56;89.30
51986;BME280;38002;53.296;6.600;2023-03-03T00:39:49;102898.19;;;1.52;90.08
51986;BME280;38002;53.296;6.600;2023-03-03T00:44:56;102902.94;;;1.44;89.75
51986;BME280;38002;53.296;6.600;2023-03-03T00:55:07;102893.84;;;1.23;88.95
51986;BME280;38002;53.296;6.600;2023-03-03T01:00:08;102891.47;;;1.14;89.10
51986;BME280;38002;53.296;6.600;2023-03-03T01:05:12;102885.78;;;0.98;88.91
51986;BME280;38002;53.296;6.600;2023-03-03T01:10:13;102888.78;;;0.87;89.10
51986;BME280;38002;53.296;6.600;2023-03-03T01:15:14;102887.41;;;0.76;89.05
51986;BME280;38002;53.296;6.600;2023-03-03T01:20:15;102889.50;;;0.66;88.44
51986;BME280;38002;53.296;6.600;2023-03-03T01:25:15;102883.50;;;0.58;88.79
51986;BME280;38002;53.296;6.600;2023-03-03T01:30:16;102887.38;;;0.48;88.52
51986;BME280;38002;53.296;6.600;2023-03-03T01:35:17;102885.81;;;0.42;88.74
51986;BME280;38002;53.296;6.600;2023-03-03T01:40:20;102874.50;;;0.33;88.45
51986;BME280;38002;53.296;6.600;2023-03-03T01:45:24;102880.25;;;0.21;88.01
51986;BME280;38002;53.296;6.600;2023-03-03T01:50:56;102883.28;;;0.09;88.00
51986;BME280;38002;53.296;6.600;2023-03-03T01:56:00;102888.81;;;0.03;88.61
51986;BME280;38002;53.296;6.600;2023-03-03T02:01:05;102872.16;;;-0.07;87.80
51986;BME280;38002;53.296;6.600;2023-03-03T02:06:11;102879.47;;;-0.14;88.10
51986;BME280;38002;53.296;6.600;2023-03-03T02:11:13;102869.09;;;-0.24;88.18
51986;BME280;38002;53.296;6.600;2023-03-03T02:16:14;102860.63;;;-0.40;87.59
51986;BME280;38002;53.296;6.600;2023-03-03T02:21:24;102873.25;;;-0.45;87.97
51986;BME280;38002;53.296;6.600;2023-03-03T02:26:29;102885.75;;;-0.47;88.13
51986;BME280;38002;53.296;6.600;2023-03-03T02:31:31;102878.69;;;-0.48;88.33
51986;BME280;38002;53.296;6.600;2023-03-03T02:36:36;102883.19;;;-0.50;88.69
51986;BME280;38002;53.296;6.600;2023-03-03T02:42:12;102883.28;;;-0.53;88.62
51986;BME280;38002;53.296;6.600;2023-03-03T02:47:14;102882.53;;;-0.60;87.86
51986;BME280;38002;53.296;6.600;2023-03-03T02:52:14;102878.16;;;-0.61;88.45
51986;BME280;38002;53.296;6.600;2023-03-03T02:57:17;102889.75;;;-0.62;88.58
51986;BME280;38002;53.296;6.600;2023-03-03T03:02:17;102879.09;;;-0.63;87.87
51986;BME280;38002;53.296;6.600;2023-03-03T03:07:18;102880.94;;;-0.65;88.18
51986;BME280;38002;53.296;6.600;2023-03-03T03:12:19;102881.94;;;-0.69;88.27
51986;BME280;38002;53.296;6.600;2023-03-03T03:17:20;102880.25;;;-0.73;88.34
51986;BME280;38002;53.296;6.600;2023-03-03T03:22:20;102882.97;;;-0.75;88.24
51986;BME280;38002;53.296;6.600;2023-03-03T03:27:21;102873.28;;;-0.79;87.84
51986;BME280;38002;53.296;6.600;2023-03-03T03:32:22;102876.91;;;-0.81;88.22
51986;BME280;38002;53.296;6.600;2023-03-03T03:37:23;102875.16;;;-0.82;87.66
51986;BME280;38002;53.296;6.600;2023-03-03T03:42:23;102868.16;;;-0.86;88.01
51986;BME280;38002;53.296;6.600;2023-03-03T03:47:24;102870.88;;;-0.89;88.14
51986;BME280;38002;53.296;6.600;2023-03-03T03:52:24;102869.22;;;-0.94;88.22
51986;BME280;38002;53.296;6.600;2023-03-03T03:57:24;102861.28;;;-0.97;88.05
51986;BME280;38002;53.296;6.600;2023-03-03T04:02:25;102865.88;;;-1.03;87.62
51986;BME280;38002;53.296;6.600;2023-03-03T04:07:25;102866.22;;;-1.15;87.87
51986;BME280;38002;53.296;6.600;2023-03-03T04:12:26;102866.31;;;-1.20;88.52
51986;BME280;38002;53.296;6.600;2023-03-03T04:17:26;102873.53;;;-1.23;88.15
51986;BME280;38002;53.296;6.600;2023-03-03T04:22:27;102867.31;;;-1.24;88.14
51986;BME280;38002;53.296;6.600;2023-03-03T04:27:33;102863.75;;;-1.24;88.28
51986;BME280;38002;53.296;6.600;2023-03-03T04:32:34;102865.59;;;-1.26;88.36
51986;BME280;38002;53.296;6.600;2023-03-03T04:37:35;102865.63;;;-1.28;88.07
51986;BME280;38002;53.296;6.600;2023-03-03T04:42:36;102863.06;;;-1.32;87.98
51986;BME280;38002;53.296;6.600;2023-03-03T04:47:37;102867.63;;;-1.36;88.29
51986;BME280;38002;53.296;6.600;2023-03-03T04:52:38;102878.38;;;-1.39;88.44
51986;BME280;38002;53.296;6.600;2023-03-03T04:57:38;102856.16;;;-1.41;88.50
51986;BME280;38002;53.296;6.600;2023-03-03T05:02:39;102864.19;;;-1.41;88.16
51986;BME280;38002;53.296;6.600;2023-03-03T05:07:40;102857.13;;;-1.44;88.67
51986;BME280;38002;53.296;6.600;2023-03-03T05:12:40;102867.84;;;-1.45;88.47
51986;BME280;38002;53.296;6.600;2023-03-03T05:17:41;102857.25;;;-1.48;88.21
51986;BME280;38002;53.296;6.600;2023-03-03T05:22:41;102859.06;;;-1.50;88.58
51986;BME280;38002;53.296;6.600;2023-03-03T05:27:42;102860.09;;;-1.56;88.18
51986;BME280;38002;53.296;6.600;2023-03-03T05:32:43;102854.81;;;-1.59;88.62
51986;BME280;38002;53.296;6.600;2023-03-03T05:37:43;102846.81;;;-1.59;88.71
51986;BME280;38002;53.296;6.600;2023-03-03T05:42:46;102848.59;;;-1.59;88.52
51986;BME280;38002;53.296;6.600;2023-03-03T05:47:47;102853.13;;;-1.63;88.39
51986;BME280;38002;53.296;6.600;2023-03-03T05:52:51;102857.59;;;-1.63;88.80
51986;BME280;38002;53.296;6.600;2023-03-03T05:57:52;102867.38;;;-1.64;88.37
51986;BME280;38002;53.296;6.600;2023-03-03T06:02:52;102864.72;;;-1.64;88.63
51986;BME280;38002;53.296;6.600;2023-03-03T06:07:53;102865.66;;;-1.65;88.20
51986;BME280;38002;53.296;6.600;2023-03-03T06:12:53;102874.53;;;-1.64;88.27
51986;BME280;38002;53.296;6.600;2023-03-03T06:17:54;102875.44;;;-1.65;88.81
51986;BME280;38002;53.296;6.600;2023-03-03T06:22:54;102879.00;;;-1.66;88.50
51986;BME280;38002;53.296;6.600;2023-03-03T06:27:56;102881.69;;;-1.68;88.36
51986;BME280;38002;53.296;6.600;2023-03-03T06:32:57;102877.19;;;-1.64;88.35
51986;BME280;38002;53.296;6.600;2023-03-03T06:37:57;102884.22;;;-1.60;89.22
51986;BME280;38002;53.296;6.600;2023-03-03T06:42:58;102893.91;;;-1.56;88.84
51986;BME280;38002;53.296;6.600;2023-03-03T06:47:58;102904.50;;;-1.53;88.82
51986;BME280;38002;53.296;6.600;2023-03-03T06:53:13;102905.28;;;-1.50;88.88
51986;BME280;38002;53.296;6.600;2023-03-03T06:58:16;102910.50;;;-1.45;89.44
51986;BME280;38002;53.296;6.600;2023-03-03T07:03:21;102913.78;;;-1.32;89.50
51986;BME280;38002;53.296;6.600;2023-03-03T07:08:24;102912.50;;;-1.16;89.68
51986;BME280;38002;53.296;6.600;2023-03-03T07:13:27;102910.44;;;-1.05;90.26
51986;BME280;38002;53.296;6.600;2023-03-03T07:23:39;102916.03;;;-0.80;90.02
51986;BME280;38002;53.296;6.600;2023-03-03T07:28:44;102907.72;;;-0.68;90.45
51986;BME280;38002;53.296;6.600;2023-03-03T07:33:48;102922.56;;;-0.57;90.17
51986;BME280;38002;53.296;6.600;2023-03-03T07:38:52;102898.41;;;-0.54;89.94
51986;BME280;38002;53.296;6.600;2023-03-03T07:44:03;102918.44;;;-0.36;90.76
51986;BME280;38002;53.296;6.600;2023-03-03T07:49:19;102915.41;;;-0.24;90.28
51986;BME280;38002;53.296;6.600;2023-03-03T07:54:38;102926.66;;;-0.13;90.51
51986;BME280;38002;53.296;6.600;2023-03-03T07:59:48;102929.94;;;-0.02;90.43
51986;BME280;38002;53.296;6.600;2023-03-03T08:04:49;102934.09;;;0.09;90.81
51986;BME280;38002;53.296;6.600;2023-03-03T08:09:58;102931.09;;;0.19;90.75
51986;BME280;38002;53.296;6.600;2023-03-03T08:15:14;102930.78;;;0.30;90.48
51986;BME280;38002;53.296;6.600;2023-03-03T08:25:28;102927.63;;;0.45;91.09
51986;BME280;38002;53.296;6.600;2023-03-03T08:30:29;102931.78;;;0.55;90.83
51986;BME280;38002;53.296;6.600;2023-03-03T08:35:31;102929.53;;;0.69;93.17
51986;BME280;38002;53.296;6.600;2023-03-03T08:40:32;102925.56;;;0.82;91.86
51986;BME280;38002;53.296;6.600;2023-03-03T08:45:33;102920.59;;;0.98;92.05
51986;BME280;38002;53.296;6.600;2023-03-03T08:50:34;102912.94;;;1.12;92.04
51986;BME280;38002;53.296;6.600;2023-03-03T08:55:35;102920.13;;;1.38;91.89
51986;BME280;38002;53.296;6.600;2023-03-03T09:00:35;102923.88;;;1.59;92.23
51986;BME280;38002;53.296;6.600;2023-03-03T09:05:38;102930.22;;;1.81;91.73
51986;BME280;38002;53.296;6.600;2023-03-03T09:10:38;102921.44;;;2.01;92.08
51986;BME280;38002;53.296;6.600;2023-03-03T09:15:39;102927.56;;;2.27;92.50
51986;BME280;38002;53.296;6.600;2023-03-03T09:20:51;102930.38;;;2.69;93.15
51986;BME280;38002;53.296;6.600;2023-03-03T09:25:52;102923.63;;;3.03;93.06
51986;BME280;38002;53.296;6.600;2023-03-03T09:30:55;102919.81;;;3.30;92.66
51986;BME280;38002;53.296;6.600;2023-03-03T09:36:10;102918.50;;;3.60;91.94
51986;BME280;38002;53.296;6.600;2023-03-03T09:41:57;102917.28;;;3.88;92.24
51986;BME280;38002;53.296;6.600;2023-03-03T09:47:05;102925.31;;;4.08;91.39
51986;BME280;38002;53.296;6.600;2023-03-03T09:52:36;102928.16;;;4.24;90.56
51986;BME280;38002;53.296;6.600;2023-03-03T10:18:59;102924.44;;;5.01;89.62
51986;BME280;38002;53.296;6.600;2023-03-03T10:24:27;102920.09;;;5.16;88.78
51986;BME280;38002;53.296;6.600;2023-03-03T10:34:47;102923.06;;;5.45;87.76
51986;BME280;38002;53.296;6.600;2023-03-03T11:01:44;102921.41;;;6.27;84.17
51986;BME280;38002;53.296;6.600;2023-03-03T11:12:19;102922.09;;;6.64;83.33
51986;BME280;38002;53.296;6.600;2023-03-03T11:23:28;102921.13;;;6.80;81.38
51986;BME280;38002;53.296;6.600;2023-03-03T11:28:49;102928.53;;;6.77;82.36
51986;BME280;38002;53.296;6.600;2023-03-03T11:38:57;102913.69;;;7.75;81.69
51986;BME280;38002;53.296;6.600;2023-03-03T11:54:55;102906.75;;;8.13;78.72
51986;BME280;38002;53.296;6.600;2023-03-03T12:00:40;102900.59;;;8.40;78.34
51986;BME280;38002;53.296;6.600;2023-03-03T12:10:59;102896.13;;;8.39;72.94
51986;BME280;38002;53.296;6.600;2023-03-03T12:21:31;102882.28;;;8.29;79.19
51986;BME280;38002;53.296;6.600;2023-03-03T12:48:05;102866.19;;;8.12;79.15
51986;BME280;38002;53.296;6.600;2023-03-03T13:03:52;102850.72;;;8.28;77.08
51986;BME280;38002;53.296;6.600;2023-03-03T13:09:16;102842.00;;;8.23;78.62
51986;BME280;38002;53.296;6.600;2023-03-03T13:14:48;102847.63;;;8.06;75.77
51986;BME280;38002;53.296;6.600;2023-03-03T13:19:57;102852.75;;;7.96;78.13
51986;BME280;38002;53.296;6.600;2023-03-03T13:30:56;102831.94;;;7.83;78.21
51986;BME280;38002;53.296;6.600;2023-03-03T13:36:06;102830.19;;;7.82;78.85
51986;BME280;38002;53.296;6.600;2023-03-03T13:51:51;102819.25;;;7.69;78.07
51986;BME280;38002;53.296;6.600;2023-03-03T13:57:17;102816.84;;;7.64;79.20
51986;BME280;38002;53.296;6.600;2023-03-03T14:13:29;102808.53;;;7.53;77.79
51986;BME280;38002;53.296;6.600;2023-03-03T14:18:56;102806.97;;;7.49;78.49
51986;BME280;38002;53.296;6.600;2023-03-03T14:24:16;102799.13;;;7.45;79.10
51986;BME280;38002;53.296;6.600;2023-03-03T14:34:38;102778.94;;;7.36;77.50
51986;BME280;38002;53.296;6.600;2023-03-03T14:39:39;102782.78;;;7.32;78.18
51986;BME280;38002;53.296;6.600;2023-03-03T14:44:54;102776.09;;;7.23;78.56
51986;BME280;38002;53.296;6.600;2023-03-03T14:50:00;102776.88;;;7.25;78.89
51986;BME280;38002;53.296;6.600;2023-03-03T14:55:32;102779.56;;;7.25;78.94
51986;BME280;38002;53.296;6.600;2023-03-03T15:00:33;102776.09;;;7.23;78.70
51986;BME280;38002;53.296;6.600;2023-03-03T15:05:34;102780.72;;;7.21;78.67
51986;BME280;38002;53.296;6.600;2023-03-03T15:10:37;102767.38;;;7.18;78.62
51986;BME280;38002;53.296;6.600;2023-03-03T15:20:58;102763.91;;;7.16;78.60
51986;BME280;38002;53.296;6.600;2023-03-03T15:31:41;102742.56;;;7.12;78.21
51986;BME280;38002;53.296;6.600;2023-03-03T15:36:53;102739.94;;;7.10;78.70
51986;BME280;38002;53.296;6.600;2023-03-03T15:42:17;102734.72;;;7.07;78.63
51986;BME280;38002;53.296;6.600;2023-03-03T16:03:30;102732.84;;;6.94;78.51
51986;BME280;38002;53.296;6.600;2023-03-03T16:08:56;102729.56;;;6.89;79.24
51986;BME280;38002;53.296;6.600;2023-03-03T16:19:44;102730.19;;;6.78;79.18
51986;BME280;38002;53.296;6.600;2023-03-03T16:35:23;102747.69;;;6.57;79.27
51986;BME280;38002;53.296;6.600;2023-03-03T16:40:49;102754.22;;;6.53;79.32
51986;BME280;38002;53.296;6.600;2023-03-03T16:45:59;102751.72;;;6.50;79.01
51986;BME280;38002;53.296;6.600;2023-03-03T16:51:12;102754.50;;;6.48;79.00
51986;BME280;38002;53.296;6.600;2023-03-03T17:43:52;102777.00;;;6.17;79.85
51986;BME280;38002;53.296;6.600;2023-03-03T17:54:27;102781.72;;;6.14;80.14
51986;BME280;38002;53.296;6.600;2023-03-03T18:26:01;102784.53;;;6.12;80.56
51986;BME280;38002;53.296;6.600;2023-03-03T18:41:30;102795.56;;;6.08;80.74
51986;BME280;38002;53.296;6.600;2023-03-03T18:46:51;102799.22;;;6.07;81.50
51986;BME280;38002;53.296;6.600;2023-03-03T18:52:30;102794.84;;;6.04;80.84
51986;BME280;38002;53.296;6.600;2023-03-03T18:57:31;102797.72;;;6.01;80.66
51986;BME280;38002;53.296;6.600;2023-03-03T19:02:36;102796.09;;;5.99;80.96
51986;BME280;38002;53.296;6.600;2023-03-03T19:08:15;102794.34;;;5.98;81.11
51986;BME280;38002;53.296;6.600;2023-03-03T19:23:53;102797.38;;;5.91;81.07
51986;BME280;38002;53.296;6.600;2023-03-03T19:34:53;102806.50;;;5.89;80.71
51986;BME280;38002;53.296;6.600;2023-03-03T19:50:52;102814.69;;;5.87;80.88
51986;BME280;38002;53.296;6.600;2023-03-03T19:56:17;102815.56;;;5.88;80.97
51986;BME280;38002;53.296;6.600;2023-03-03T20:23:12;102825.47;;;5.87;81.68
51986;BME280;38002;53.296;6.600;2023-03-03T20:54:41;102835.09;;;5.93;80.94
51986;BME280;38002;53.296;6.600;2023-03-03T20:59:54;102833.34;;;5.92;81.01
51986;BME280;38002;53.296;6.600;2023-03-03T21:10:16;102842.25;;;5.94;81.38
51986;BME280;38002;53.296;6.600;2023-03-03T21:15:31;102840.50;;;5.93;81.25
51986;BME280;38002;53.296;6.600;2023-03-03T21:20:33;102839.72;;;5.91;80.98
51986;BME280;38002;53.296;6.600;2023-03-03T21:36:11;102840.81;;;5.87;81.16
51986;BME280;38002;53.296;6.600;2023-03-03T21:41:11;102840.88;;;5.85;80.25
51986;BME280;38002;53.296;6.600;2023-03-03T21:46:17;102843.56;;;5.85;80.47
51986;BME280;38002;53.296;6.600;2023-03-03T21:51:18;102841.81;;;5.84;80.82
51986;BME280;38002;53.296;6.600;2023-03-03T21:56:19;102839.97;;;5.86;80.99
51986;BME280;38002;53.296;6.600;2023-03-03T22:01:19;102835.56;;;5.84;80.63
51986;BME280;38002;53.296;6.600;2023-03-03T22:06:21;102836.44;;;5.84;80.71
51986;BME280;38002;53.296;6.600;2023-03-03T22:11:21;102841.81;;;5.84;80.76
51986;BME280;38002;53.296;6.600;2023-03-03T22:16:22;102840.19;;;5.82;80.45
51986;BME280;38002;53.296;6.600;2023-03-03T22:21:23;102842.00;;;5.81;80.25
51986;BME280;38002;53.296;6.600;2023-03-03T22:26:23;102845.72;;;5.79;80.26
51986;BME280;38002;53.296;6.600;2023-03-03T22:31:24;102842.16;;;5.78;80.25
51986;BME280;38002;53.296;6.600;2023-03-03T22:36:24;102835.91;;;5.78;80.69
51986;BME280;38002;53.296;6.600;2023-03-03T22:41:25;102820.66;;;5.77;81.09
51986;BME280;38002;53.296;6.600;2023-03-03T22:46:25;102820.72;;;5.75;80.59
51986;BME280;38002;53.296;6.600;2023-03-03T22:51:26;102829.53;;;5.79;81.05
51986;BME280;38002;53.296;6.600;2023-03-03T22:56:26;102820.56;;;5.78;80.73
51986;BME280;38002;53.296;6.600;2023-03-03T23:01:27;102815.16;;;5.78;80.59
51986;BME280;38002;53.296;6.600;2023-03-03T23:06:27;102817.97;;;5.77;80.55
51986;BME280;38002;53.296;6.600;2023-03-03T23:11:28;102818.84;;;5.77;80.78
51986;BME280;38002;53.296;6.600;2023-03-03T23:16:28;102816.22;;;5.76;80.54
51986;BME280;38002;53.296;6.600;2023-03-03T23:21:28;102821.44;;;5.79;80.54
51986;BME280;38002;53.296;6.600;2023-03-03T23:26:29;102818.72;;;5.79;80.90
51986;BME280;38002;53.296;6.600;2023-03-03T23:31:30;102821.44;;;5.79;80.70
51986;BME280;38002;53.296;6.600;2023-03-03T23:36:30;102816.13;;;5.77;80.64
51986;BME280;38002;53.296;6.600;2023-03-03T23:41:31;102818.84;;;5.77;80.43
51986;BME280;38002;53.296;6.600;2023-03-03T23:46:31;102813.50;;;5.76;80.66
51986;BME280;38002;53.296;6.600;2023-03-03T23:51:33;102818.91;;;5.76;80.57
51986;BME280;38002;53.296;6.600;2023-03-03T23:56:33;102810.81;;;5.76;80.42
